createdAt,value
2023-10-08T00:01:07.612Z,9.48
2023-10-08T00:03:34.732Z,9.65
2023-10-08T00:06:16.068Z,10.88
2023-10-08T00:08:43.081Z,10.70
2023-10-08T00:11:11.833Z,10.07
2023-10-08T00:13:42.820Z,9.80
2023-10-08T00:16:18.299Z,8.60
2023-10-08T00:18:53.379Z,11.68
2023-10-08T00:21:27.516Z,10.40
2023-10-08T00:24:01.471Z,9.05
2023-10-08T00:26:30.882Z,7.85
2023-10-08T00:29:00.879Z,9.52
2023-10-08T00:31:32.834Z,8.32
2023-10-08T00:33:59.805Z,8.70
2023-10-08T00:36:26.960Z,9.68
2023-10-08T00:39:00.505Z,10.50
2023-10-08T00:41:33.678Z,10.45
2023-10-08T00:44:07.201Z,10.40
2023-10-08T00:46:37.484Z,11.15
2023-10-08T00:49:27.438Z,9.23
2023-10-08T00:52:10.929Z,8.57
2023-10-08T00:54:52.598Z,11.35
2023-10-08T00:57:23.367Z,12.43
2023-10-08T00:59:58.077Z,9.48
2023-10-08T01:02:56.949Z,8.07
2023-10-08T01:05:38.510Z,7.68
2023-10-08T01:08:07.822Z,8.73
2023-10-08T01:10:35.054Z,10.32
2023-10-08T01:13:06.871Z,8.75
2023-10-08T01:15:37.513Z,10.93
2023-10-08T01:18:06.253Z,9.40
2023-10-08T01:20:36.333Z,7.80
2023-10-08T01:23:14.695Z,11.05
2023-10-08T01:25:43.532Z,10.07
2023-10-08T01:28:19.711Z,8.02
2023-10-08T01:30:48.213Z,10.15
2023-10-08T01:33:17.921Z,12.75
2023-10-08T01:35:45.258Z,7.68
2023-10-08T01:38:14.873Z,9.02
2023-10-08T01:40:42.991Z,8.80
2023-10-08T01:43:11.607Z,8.30
2023-10-08T01:45:43.854Z,8.57
2023-10-08T01:48:11.280Z,12.80
2023-10-08T01:50:39.077Z,10.07
2023-10-08T01:53:11.421Z,7.95
2023-10-08T01:55:50.834Z,9.30
2023-10-08T01:58:18.702Z,8.93
2023-10-08T02:00:48.301Z,6.65
2023-10-08T02:03:19.736Z,9.38
2023-10-08T02:05:47.692Z,10.48
2023-10-08T02:08:15.972Z,10.13
2023-10-08T02:10:45.187Z,8.90
2023-10-08T02:13:12.226Z,7.10
2023-10-08T02:15:44.750Z,8.75
2023-10-08T02:18:12.062Z,7.97
2023-10-08T02:20:41.129Z,8.27
2023-10-08T02:23:08.269Z,8.35
2023-10-08T02:25:36.561Z,10.85
2023-10-08T02:28:04.834Z,8.43
2023-10-08T02:30:32.335Z,8.77
2023-10-08T02:32:59.818Z,7.87
2023-10-08T02:35:28.645Z,7.95
2023-10-08T02:37:56.190Z,9.10
2023-10-08T02:40:28.855Z,9.80
2023-10-08T02:42:59.536Z,8.82
2023-10-08T02:45:28.135Z,10.07
2023-10-08T02:47:56.290Z,7.20
2023-10-08T02:50:24.317Z,10.40
2023-10-08T02:52:51.451Z,7.53
2023-10-08T02:55:51.440Z,8.55
2023-10-08T02:58:20.603Z,9.02
2023-10-08T03:00:49.144Z,9.75
2023-10-08T03:03:24.017Z,8.10
2023-10-08T03:05:52.960Z,8.65
2023-10-08T03:08:22.528Z,6.28
2023-10-08T03:11:04.148Z,9.32
2023-10-08T03:13:31.145Z,7.35
2023-10-08T03:16:00.875Z,9.00
2023-10-08T03:18:36.969Z,9.25
2023-10-08T03:21:24.232Z,8.25
2023-10-08T03:23:52.880Z,9.43
2023-10-08T03:26:32.589Z,7.37
2023-10-08T03:29:02.291Z,10.07
2023-10-08T03:31:47.770Z,9.80
2023-10-08T03:34:16.615Z,9.98
2023-10-08T03:36:46.805Z,9.25
2023-10-08T03:39:17.970Z,8.57
2023-10-08T03:41:53.204Z,8.95
2023-10-08T03:44:21.982Z,9.57
2023-10-08T03:46:49.629Z,9.10
2023-10-08T03:49:26.509Z,13.57
2023-10-08T03:51:54.306Z,9.63
2023-10-08T03:54:31.334Z,8.90
2023-10-08T03:59:32.063Z,9.95
2023-10-08T04:02:16.150Z,11.05
2023-10-08T04:04:59.120Z,9.05
2023-10-08T04:07:40.081Z,8.70
2023-10-08T04:10:10.780Z,9.70
2023-10-08T04:12:45.321Z,10.77
2023-10-08T04:15:18.344Z,10.63
2023-10-08T04:17:45.748Z,9.85
2023-10-08T04:20:32.694Z,8.73
2023-10-08T04:23:03.311Z,10.10
2023-10-08T04:25:31.057Z,9.63
2023-10-08T04:28:01.755Z,9.25
2023-10-08T04:30:38.123Z,9.35
2023-10-08T04:33:08.955Z,10.33
2023-10-08T04:35:49.729Z,10.68
2023-10-08T04:38:20.452Z,10.45
2023-10-08T04:40:50.196Z,11.35
2023-10-08T04:43:24.169Z,9.63
2023-10-08T04:45:51.150Z,10.63
2023-10-08T04:48:22.024Z,8.00
2023-10-08T04:50:59.933Z,9.63
2023-10-08T04:53:38.626Z,9.20
2023-10-08T04:56:14.785Z,9.65
2023-10-08T04:58:42.234Z,9.32
2023-10-08T05:01:19.137Z,12.00
2023-10-08T05:03:59.911Z,10.75
2023-10-08T05:06:34.858Z,9.15
2023-10-08T05:09:14.125Z,8.45
2023-10-08T05:11:53.456Z,8.90
2023-10-08T05:14:33.247Z,8.70
2023-10-08T05:17:19.825Z,7.85
2023-10-08T05:19:57.303Z,9.75
2023-10-08T05:22:30.157Z,16.33
2023-10-08T05:25:17.882Z,10.52
2023-10-08T05:30:38.377Z,10.85
2023-10-08T05:33:18.729Z,12.35
2023-10-08T05:35:46.572Z,9.65
2023-10-08T05:38:36.061Z,10.93
2023-10-08T05:41:03.014Z,8.93
2023-10-08T05:43:42.658Z,12.98
2023-10-08T05:46:40.057Z,12.68
2023-10-08T05:49:07.189Z,9.80
2023-10-08T05:51:48.000Z,10.18
2023-10-08T05:54:37.190Z,6.93
2023-10-08T05:57:06.517Z,12.98
2023-10-08T05:59:58.979Z,9.52
2023-10-08T06:02:40.635Z,10.50
2023-10-08T06:05:15.234Z,8.52
2023-10-08T06:07:54.398Z,10.65
2023-10-08T06:10:34.176Z,7.30
2023-10-08T06:13:31.166Z,9.07
2023-10-08T06:15:59.207Z,9.77
2023-10-08T06:18:27.899Z,10.20
2023-10-08T06:21:00.001Z,9.00
2023-10-08T06:23:29.475Z,11.82
2023-10-08T06:26:00.290Z,11.32
2023-10-08T06:28:27.950Z,14.27
2023-10-08T06:30:56.886Z,17.65
2023-10-08T06:33:32.287Z,13.62
2023-10-08T06:36:14.899Z,8.20
2023-10-08T06:38:43.997Z,9.02
2023-10-08T06:41:15.201Z,10.85
2023-10-08T06:43:49.488Z,14.18
2023-10-08T06:46:20.329Z,13.18
2023-10-08T06:48:47.827Z,9.55
2023-10-08T06:51:14.929Z,9.70
2023-10-08T06:53:43.086Z,13.18
2023-10-08T06:56:13.678Z,9.55
2023-10-08T06:58:46.439Z,11.75
2023-10-08T07:01:14.667Z,9.48
2023-10-08T07:03:41.946Z,11.05
2023-10-08T07:06:18.212Z,13.35
2023-10-08T07:08:54.258Z,11.88
2023-10-08T07:11:21.359Z,9.35
2023-10-08T07:13:48.480Z,15.18
2023-10-08T07:16:18.927Z,8.32
2023-10-08T07:18:53.905Z,9.73
2023-10-08T07:21:30.105Z,8.75
2023-10-08T07:23:58.562Z,8.55
2023-10-08T07:26:38.965Z,8.23
2023-10-08T07:29:09.205Z,9.88
2023-10-08T07:31:37.754Z,11.80
2023-10-08T07:34:28.596Z,10.15
2023-10-08T07:36:56.418Z,11.00
2023-10-08T07:39:33.130Z,9.15
2023-10-08T07:42:01.998Z,11.57
2023-10-08T07:44:34.125Z,8.07
2023-10-08T07:47:03.010Z,10.18
2023-10-08T07:49:32.716Z,7.93
2023-10-08T07:52:02.986Z,9.13
2023-10-08T07:54:29.956Z,10.80
2023-10-08T07:57:10.330Z,9.40
2023-10-08T08:00:16.839Z,12.55
2023-10-08T08:02:43.887Z,10.55
2023-10-08T08:05:10.943Z,7.37
2023-10-08T08:07:38.542Z,7.75
2023-10-08T08:10:12.401Z,16.10
2023-10-08T08:12:39.391Z,9.35
2023-10-08T08:15:16.251Z,10.65
2023-10-08T08:20:20.109Z,8.30
2023-10-08T08:22:56.378Z,10.00
2023-10-08T08:25:49.375Z,9.55
2023-10-08T08:28:18.515Z,9.40
2023-10-08T08:30:49.670Z,10.45
2023-10-08T08:33:23.871Z,12.00
2023-10-08T08:36:05.178Z,11.40
2023-10-08T08:38:33.979Z,8.65
2023-10-08T08:41:08.081Z,11.88
2023-10-08T08:43:36.401Z,9.23
2023-10-08T08:46:11.890Z,10.10
2023-10-08T08:48:41.826Z,9.77
2023-10-08T08:51:10.968Z,12.40
2023-10-08T08:53:38.692Z,7.97
2023-10-08T08:56:10.611Z,11.30
2023-10-08T08:58:39.305Z,14.05
2023-10-08T09:01:14.275Z,10.70
2023-10-08T09:03:41.382Z,6.37
2023-10-08T09:06:09.034Z,8.55
2023-10-08T09:08:37.250Z,7.80
2023-10-08T09:11:09.380Z,5.72
2023-10-08T09:13:37.311Z,11.12
2023-10-08T09:16:24.397Z,9.20
2023-10-08T09:18:52.775Z,9.70
2023-10-08T09:21:23.680Z,8.15
2023-10-08T09:23:53.846Z,9.85
2023-10-08T09:26:24.587Z,12.25
2023-10-08T09:28:52.732Z,10.70
2023-10-08T09:31:19.723Z,8.93
2023-10-08T09:33:56.663Z,8.52
2023-10-08T09:39:07.970Z,9.50
2023-10-08T09:41:36.031Z,9.63
2023-10-08T09:44:06.006Z,11.95
2023-10-08T09:46:38.015Z,9.95
2023-10-08T09:49:09.698Z,14.85
2023-10-08T09:51:39.490Z,10.77
2023-10-08T09:54:15.522Z,8.23
2023-10-08T09:56:44.665Z,9.88
2023-10-08T09:59:12.014Z,10.77
2023-10-08T10:01:42.661Z,9.05
2023-10-08T10:04:14.793Z,15.80
2023-10-08T10:06:44.644Z,7.78
2023-10-08T10:09:23.330Z,11.15
2023-10-08T10:11:51.600Z,12.07
2023-10-08T10:14:21.746Z,7.72
2023-10-08T10:17:21.565Z,10.60
2023-10-08T10:20:02.164Z,11.82
2023-10-08T10:22:31.351Z,11.40
2023-10-08T10:24:59.058Z,8.60
2023-10-08T10:27:26.433Z,9.90
2023-10-08T10:29:53.998Z,11.25
2023-10-08T10:32:20.898Z,12.98
2023-10-08T10:34:48.795Z,9.52
2023-10-08T10:37:21.976Z,10.32
2023-10-08T10:40:00.517Z,9.32
2023-10-08T10:42:29.647Z,12.43
2023-10-08T10:44:58.119Z,9.13
2023-10-08T10:47:28.107Z,12.15
2023-10-08T10:50:01.718Z,8.73
2023-10-08T10:52:48.250Z,11.02
2023-10-08T10:55:15.900Z,11.32
2023-10-08T10:57:57.245Z,10.32
2023-10-08T11:00:34.517Z,8.23
2023-10-08T11:03:17.675Z,9.20
2023-10-08T11:05:49.436Z,4.93
2023-10-08T11:08:19.680Z,3.47
2023-10-08T11:10:59.988Z,7.93
2023-10-08T11:13:30.147Z,6.55
2023-10-08T11:15:59.425Z,2.08
2023-10-08T11:18:31.320Z,4.40
2023-10-08T11:21:16.985Z,6.45
2023-10-08T11:23:53.815Z,8.23
2023-10-08T11:26:23.011Z,4.68
2023-10-08T11:28:50.181Z,2.60
2023-10-08T11:31:22.254Z,1.80
2023-10-08T11:33:55.857Z,3.83
2023-10-08T11:36:29.145Z,2.37
2023-10-08T11:39:02.326Z,3.47
2023-10-08T11:41:43.557Z,1.37
2023-10-08T11:44:14.847Z,1.05
2023-10-08T11:46:42.077Z,4.78
2023-10-08T11:49:19.036Z,2.28
2023-10-08T11:51:47.276Z,0.73
2023-10-08T11:54:15.986Z,1.60
2023-10-08T11:56:43.330Z,2.05
2023-10-08T11:59:10.355Z,1.77
2023-10-08T12:01:39.270Z,1.92
2023-10-08T12:04:14.258Z,1.70
2023-10-08T12:06:48.173Z,0.30
2023-10-08T12:09:15.913Z,1.40
2023-10-08T12:11:43.993Z,0.65
2023-10-08T12:14:12.605Z,1.15
2023-10-08T12:16:41.105Z,0.30
2023-10-08T12:19:17.015Z,2.75
2023-10-08T12:21:48.907Z,1.08
2023-10-08T12:24:16.200Z,0.20
2023-10-08T12:26:47.377Z,0.75
2023-10-08T12:29:20.750Z,1.10
2023-10-08T12:31:49.224Z,0.10
2023-10-08T12:34:18.263Z,3.80
2023-10-08T12:36:47.296Z,0.30
2023-10-08T12:39:17.333Z,1.70
2023-10-08T12:41:45.707Z,0.80
2023-10-08T12:44:13.980Z,0.40
2023-10-08T12:46:41.318Z,0.70
2023-10-08T12:49:08.382Z,1.33
2023-10-08T12:51:36.807Z,0.25
2023-10-08T12:54:12.997Z,1.00
2023-10-08T12:56:46.908Z,0.10
2023-10-08T12:59:25.231Z,1.08
2023-10-08T13:01:52.989Z,0.75
2023-10-08T13:04:27.700Z,0.10
2023-10-08T13:07:02.612Z,0.30
2023-10-08T13:09:33.660Z,0.52
2023-10-08T13:12:01.244Z,0.20
2023-10-08T13:14:28.306Z,0.62
2023-10-08T13:16:55.611Z,0.62
2023-10-08T13:19:25.303Z,3.50
2023-10-08T13:21:55.089Z,0.77
2023-10-08T13:24:24.994Z,0.20
2023-10-08T13:26:52.407Z,1.77
2023-10-08T13:29:20.000Z,2.00
2023-10-08T13:31:48.092Z,1.20
2023-10-08T13:34:17.803Z,3.80
2023-10-08T13:36:48.649Z,0.20
2023-10-08T13:39:25.312Z,0.30
2023-10-08T13:41:54.308Z,1.23
2023-10-08T13:44:30.784Z,2.55
2023-10-08T13:47:00.066Z,1.65
2023-10-08T13:49:31.007Z,0.50
2023-10-08T13:51:59.726Z,1.92
2023-10-08T13:54:31.327Z,0.70
2023-10-08T13:57:00.100Z,1.35
2023-10-08T13:59:27.476Z,1.10
2023-10-08T14:01:56.171Z,0.50
2023-10-08T14:04:31.869Z,2.30
2023-10-08T14:06:59.990Z,1.40
2023-10-08T14:09:33.653Z,1.75
2023-10-08T14:12:02.019Z,0.37
2023-10-08T14:14:34.814Z,1.20
2023-10-08T14:17:07.422Z,0.88
2023-10-08T14:19:40.866Z,1.42
2023-10-08T14:22:10.263Z,3.10
2023-10-08T14:24:39.407Z,3.05
2023-10-08T14:27:16.851Z,1.52
2023-10-08T14:29:51.893Z,1.00
2023-10-08T14:32:19.179Z,2.25
2023-10-08T14:34:49.303Z,0.68
2023-10-08T14:37:35.263Z,3.47
2023-10-08T14:40:21.437Z,2.47
2023-10-08T14:43:00.225Z,2.08
2023-10-08T14:45:32.763Z,2.65
2023-10-08T14:48:01.000Z,1.08
2023-10-08T14:50:29.399Z,2.15
2023-10-08T14:52:58.972Z,2.45
2023-10-08T14:55:25.939Z,2.37
2023-10-08T14:57:56.239Z,2.70
2023-10-08T15:00:27.742Z,2.58
2023-10-08T15:02:59.601Z,3.60
2023-10-08T15:05:26.665Z,2.83
2023-10-08T15:07:53.864Z,3.45
2023-10-08T15:10:23.063Z,2.80
2023-10-08T15:12:52.596Z,2.65
2023-10-08T15:15:19.949Z,4.78
2023-10-08T15:17:50.733Z,2.50
2023-10-08T15:20:25.186Z,4.85
2023-10-08T15:22:52.997Z,2.53
2023-10-08T15:25:19.933Z,4.05
2023-10-08T15:27:48.835Z,7.00
2023-10-08T15:30:23.060Z,4.82
2023-10-08T15:32:51.180Z,6.68
2023-10-08T15:35:21.576Z,5.05
2023-10-08T15:37:48.993Z,5.55
2023-10-08T15:40:20.100Z,3.67
2023-10-08T15:42:52.688Z,3.60
2023-10-08T15:45:21.390Z,3.92
2023-10-08T15:47:51.626Z,5.40
2023-10-08T15:50:22.464Z,3.67
2023-10-08T15:52:50.655Z,2.58
2023-10-08T15:55:19.198Z,4.80
2023-10-08T15:57:46.165Z,4.72
2023-10-08T16:00:14.891Z,3.28
2023-10-08T16:02:42.174Z,4.25
2023-10-08T16:05:09.355Z,4.47
2023-10-08T16:07:36.448Z,4.22
2023-10-08T16:10:03.741Z,3.90
2023-10-08T16:12:30.763Z,4.57
2023-10-08T16:14:57.764Z,6.78
2023-10-08T16:17:25.202Z,5.50
2023-10-08T16:19:52.760Z,6.57
2023-10-08T16:22:19.832Z,4.40
2023-10-08T16:24:49.831Z,4.25
2023-10-08T16:27:17.028Z,5.10
2023-10-08T16:29:47.241Z,8.85
2023-10-08T16:32:14.229Z,5.10
2023-10-08T16:34:41.174Z,3.72
2023-10-08T16:37:08.175Z,5.45
2023-10-08T16:39:35.117Z,3.90
2023-10-08T16:42:05.565Z,4.45
2023-10-08T16:44:32.567Z,4.30
2023-10-08T16:46:59.514Z,5.15
2023-10-08T16:49:30.206Z,6.07
2023-10-08T16:51:57.416Z,4.95
2023-10-08T16:54:27.486Z,6.15
2023-10-08T16:56:54.541Z,4.22
2023-10-08T16:59:21.582Z,3.10
2023-10-08T17:01:48.500Z,3.80
2023-10-08T17:04:17.061Z,4.35
2023-10-08T17:06:47.663Z,6.43
2023-10-08T17:09:18.412Z,2.97
2023-10-08T17:11:50.339Z,4.15
2023-10-08T17:14:19.578Z,6.57
2023-10-08T17:16:46.859Z,5.85
2023-10-08T17:19:14.591Z,4.35
2023-10-08T17:21:41.821Z,3.92
2023-10-08T17:24:11.231Z,4.78
2023-10-08T17:26:39.164Z,4.30
2023-10-08T17:29:13.285Z,3.50
2023-10-08T17:31:40.522Z,3.08
2023-10-08T17:34:11.096Z,3.92
2023-10-08T17:36:38.032Z,5.45
2023-10-08T17:39:18.284Z,4.03
2023-10-08T17:41:54.548Z,4.68
2023-10-08T17:44:23.905Z,6.95
2023-10-08T17:46:50.852Z,5.55
2023-10-08T17:49:17.848Z,4.80
2023-10-08T17:51:45.296Z,4.20
2023-10-08T17:54:12.384Z,3.42
2023-10-08T17:56:40.611Z,5.57
2023-10-08T17:59:08.459Z,4.43
2023-10-08T18:01:38.613Z,5.32
2023-10-08T18:04:08.518Z,4.35
2023-10-08T18:06:36.749Z,5.45
2023-10-08T18:09:11.333Z,4.20
2023-10-08T18:11:44.687Z,5.07
2023-10-08T18:14:15.516Z,3.50
2023-10-08T18:16:43.762Z,3.10
2023-10-08T18:19:12.725Z,4.55
2023-10-08T18:21:41.087Z,3.95
2023-10-08T18:24:19.217Z,5.07
2023-10-08T18:26:49.493Z,3.35
2023-10-08T18:29:17.529Z,3.75
2023-10-08T18:31:48.037Z,5.60
2023-10-08T18:34:15.674Z,4.37
2023-10-08T18:36:42.591Z,5.57
2023-10-08T18:39:17.117Z,4.50
2023-10-08T18:41:45.948Z,4.28
2023-10-08T18:44:16.913Z,6.65
2023-10-08T18:46:46.793Z,4.87
2023-10-08T18:49:16.046Z,7.12
2023-10-08T18:51:46.167Z,3.25
2023-10-08T18:54:13.847Z,6.72
2023-10-08T18:56:42.146Z,4.07
2023-10-08T18:59:14.791Z,4.15
2023-10-08T19:01:45.280Z,4.20
2023-10-08T19:04:15.001Z,3.33
2023-10-08T19:06:42.531Z,4.65
2023-10-08T19:09:13.708Z,4.87
2023-10-08T19:11:41.955Z,5.97
2023-10-08T19:14:10.234Z,2.65
2023-10-08T19:16:38.092Z,4.07
2023-10-08T19:19:05.891Z,4.30
2023-10-08T19:21:34.435Z,4.53
2023-10-08T19:24:04.413Z,4.32
2023-10-08T19:26:31.720Z,5.57
2023-10-08T19:28:59.859Z,6.55
2023-10-08T19:31:27.536Z,5.53
2023-10-08T19:33:55.921Z,4.60
2023-10-08T19:36:24.490Z,6.55
2023-10-08T19:38:51.746Z,4.53
2023-10-08T19:41:22.925Z,4.60
2023-10-08T19:43:51.602Z,3.80
2023-10-08T19:46:24.214Z,4.30
2023-10-08T19:48:55.048Z,3.97
2023-10-08T19:51:24.877Z,5.15
2023-10-08T19:53:54.607Z,4.45
2023-10-08T19:56:22.210Z,6.57
2023-10-08T19:58:49.144Z,4.87
2023-10-08T20:01:18.023Z,6.72
2023-10-08T20:03:45.687Z,5.95
2023-10-08T20:06:13.826Z,4.75
2023-10-08T20:08:40.943Z,4.50
2023-10-08T20:11:08.818Z,7.90
2023-10-08T20:13:36.809Z,7.37
2023-10-08T20:16:07.319Z,5.45
2023-10-08T20:18:35.179Z,4.95
2023-10-08T20:21:08.478Z,7.07
2023-10-08T20:23:40.299Z,4.78
2023-10-08T20:26:22.677Z,6.28
2023-10-08T20:28:53.227Z,8.07
2023-10-08T20:31:22.513Z,7.53
2023-10-08T20:33:50.180Z,6.28
2023-10-08T20:36:18.953Z,7.07
2023-10-08T20:38:46.483Z,5.35
2023-10-08T20:41:21.707Z,5.65
2023-10-08T20:43:49.495Z,5.82
2023-10-08T20:46:17.652Z,4.57
2023-10-08T20:48:49.125Z,5.37
2023-10-08T20:51:19.432Z,5.62
2023-10-08T20:53:48.593Z,6.22
2023-10-08T20:56:17.239Z,4.00
2023-10-08T20:58:44.414Z,5.93
2023-10-08T21:01:12.297Z,4.90
2023-10-08T21:03:39.668Z,6.45
2023-10-08T21:06:07.877Z,5.18
2023-10-08T21:08:34.996Z,7.65
2023-10-08T21:11:02.377Z,4.90
2023-10-08T21:13:31.545Z,7.85
2023-10-08T21:16:01.853Z,7.32
2023-10-08T21:18:30.998Z,8.05
2023-10-08T21:20:58.474Z,7.45
2023-10-08T21:23:25.751Z,8.88
2023-10-08T21:25:53.012Z,6.70
2023-10-08T21:28:20.100Z,7.78
2023-10-08T21:30:47.078Z,6.60
2023-10-08T21:33:14.269Z,7.10
2023-10-08T21:35:41.437Z,6.93
2023-10-08T21:38:11.726Z,5.57
2023-10-08T21:40:39.508Z,7.43
2023-10-08T21:43:08.696Z,6.10
2023-10-08T21:45:36.536Z,7.78
2023-10-08T21:48:04.396Z,4.70
2023-10-08T21:50:32.230Z,6.25
2023-10-08T21:52:59.534Z,7.97
2023-10-08T21:55:26.760Z,6.55
2023-10-08T21:57:54.514Z,6.78
2023-10-08T22:00:23.235Z,8.27
2023-10-08T22:02:55.429Z,5.50
2023-10-08T22:05:23.613Z,6.70
2023-10-08T22:07:54.743Z,5.68
2023-10-08T22:10:22.172Z,5.72
2023-10-08T22:12:50.082Z,7.53
2023-10-08T22:15:17.989Z,6.70
2023-10-08T22:17:46.349Z,6.70
2023-10-08T22:20:34.189Z,7.78
2023-10-08T22:23:03.588Z,6.62
2023-10-08T22:25:35.261Z,6.53
2023-10-08T22:28:03.998Z,9.68
2023-10-08T22:30:31.422Z,6.40
2023-10-08T22:33:00.807Z,6.28
2023-10-08T22:35:29.669Z,5.60
2023-10-08T22:38:01.645Z,5.20
2023-10-08T22:40:49.748Z,5.28
2023-10-08T22:43:17.389Z,6.22
2023-10-08T22:45:54.156Z,5.97
2023-10-08T22:48:30.702Z,8.00
2023-10-08T22:50:58.149Z,5.93
2023-10-08T22:53:26.767Z,7.55
2023-10-08T22:55:53.732Z,7.30
2023-10-08T22:58:22.701Z,7.85
2023-10-08T23:00:54.152Z,7.10
2023-10-08T23:03:26.274Z,6.62
2023-10-08T23:05:53.774Z,6.30
2023-10-08T23:08:22.102Z,6.57
2023-10-08T23:10:50.771Z,11.57
2023-10-08T23:13:23.067Z,6.85
2023-10-08T23:15:55.389Z,4.20
2023-10-08T23:18:25.138Z,5.50
2023-10-08T23:20:52.339Z,8.60
2023-10-08T23:23:21.653Z,7.18
2023-10-08T23:25:49.230Z,5.25
2023-10-08T23:28:16.140Z,6.90
2023-10-08T23:30:43.902Z,5.72
2023-10-08T23:33:11.060Z,5.68
2023-10-08T23:35:41.632Z,7.00
2023-10-08T23:38:19.643Z,4.65
2023-10-08T23:40:47.564Z,4.60
2023-10-08T23:43:19.251Z,5.93
2023-10-08T23:45:56.685Z,7.10
2023-10-08T23:48:24.058Z,9.10
2023-10-08T23:50:55.210Z,5.53
2023-10-08T23:53:29.170Z,4.75
2023-10-08T23:56:05.108Z,5.18
2023-10-08T23:58:39.533Z,3.97
